sensor_id;sensor_type;location;lat;lon;timestamp;P1;durP1;ratioP1;P2;durP2;ratioP2
7515;SDS011;3799;47.184;8.538;2022-12-18T16:36:56;5.07;;;2.15;;
7515;SDS011;3799;47.184;8.538;2022-12-18T16:39:24;4.95;;;2.42;;
7515;SDS011;3799;47.184;8.538;2022-12-18T16:41:51;5.90;;;2.20;;
7515;SDS011;3799;47.184;8.538;2022-12-18T16:54:09;6.80;;;2.65;;
7515;SDS011;3799;47.184;8.538;2022-12-18T16:56:42;4.88;;;2.72;;
7515;SDS011;3799;47.184;8.538;2022-12-18T17:00:57;17.20;;;11.15;;
7515;SDS011;3799;47.184;8.538;2022-12-18T17:03:25;17.80;;;11.05;;
7515;SDS011;3799;47.184;8.538;2022-12-18T17:05:52;20.10;;;10.93;;
7515;SDS011;3799;47.184;8.538;2022-12-18T17:08:19;18.88;;;9.98;;
7515;SDS011;3799;47.184;8.538;2022-12-18T17:10:45;22.08;;;11.68;;
7515;SDS011;3799;47.184;8.538;2022-12-18T17:13:12;20.27;;;11.00;;
7515;SDS011;3799;47.184;8.538;2022-12-18T17:15:39;23.10;;;10.93;;
7515;SDS011;3799;47.184;8.538;2022-12-18T17:18:10;23.65;;;10.57;;
7515;SDS011;3799;47.184;8.538;2022-12-18T17:20:36;18.98;;;9.93;;
7515;SDS011;3799;47.184;8.538;2022-12-18T17:23:03;18.60;;;8.27;;
7515;SDS011;3799;47.184;8.538;2022-12-18T17:25:32;23.85;;;10.18;;
7515;SDS011;3799;47.184;8.538;2022-12-18T17:27:59;21.50;;;8.73;;
7515;SDS011;3799;47.184;8.538;2022-12-18T17:30:26;22.48;;;9.43;;
7515;SDS011;3799;47.184;8.538;2022-12-18T17:32:53;19.05;;;8.27;;
7515;SDS011;3799;47.184;8.538;2022-12-18T17:35:20;20.50;;;9.20;;
7515;SDS011;3799;47.184;8.538;2022-12-18T17:37:46;21.23;;;9.07;;
7515;SDS011;3799;47.184;8.538;2022-12-18T17:40:13;20.15;;;8.90;;
7515;SDS011;3799;47.184;8.538;2022-12-18T17:42:40;23.52;;;8.98;;
7515;SDS011;3799;47.184;8.538;2022-12-18T17:45:07;24.77;;;9.18;;
7515;SDS011;3799;47.184;8.538;2022-12-18T17:47:35;26.80;;;9.77;;
7515;SDS011;3799;47.184;8.538;2022-12-18T17:50:02;21.35;;;8.63;;
7515;SDS011;3799;47.184;8.538;2022-12-18T17:52:30;20.70;;;7.88;;
7515;SDS011;3799;47.184;8.538;2022-12-18T17:54:59;23.27;;;8.35;;
7515;SDS011;3799;47.184;8.538;2022-12-18T17:57:26;22.65;;;7.80;;
7515;SDS011;3799;47.184;8.538;2022-12-18T17:59:53;20.52;;;8.57;;
7515;SDS011;3799;47.184;8.538;2022-12-18T18:02:20;22.15;;;9.88;;
7515;SDS011;3799;47.184;8.538;2022-12-18T18:04:48;18.92;;;7.35;;
7515;SDS011;3799;47.184;8.538;2022-12-18T18:07:15;21.55;;;9.20;;
7515;SDS011;3799;47.184;8.538;2022-12-18T18:09:41;19.83;;;8.80;;
7515;SDS011;3799;47.184;8.538;2022-12-18T18:12:08;26.02;;;9.52;;
7515;SDS011;3799;47.184;8.538;2022-12-18T18:14:54;20.63;;;8.27;;
7515;SDS011;3799;47.184;8.538;2022-12-18T18:17:21;21.10;;;8.88;;
7515;SDS011;3799;47.184;8.538;2022-12-18T18:19:54;26.48;;;9.50;;
7515;SDS011;3799;47.184;8.538;2022-12-18T18:22:21;24.00;;;8.00;;
7515;SDS011;3799;47.184;8.538;2022-12-18T18:24:49;20.30;;;7.82;;
7515;SDS011;3799;47.184;8.538;2022-12-18T18:27:16;18.38;;;8.60;;
7515;SDS011;3799;47.184;8.538;2022-12-18T18:32:14;20.25;;;9.32;;
7515;SDS011;3799;47.184;8.538;2022-12-18T18:34:41;22.77;;;7.93;;
7515;SDS011;3799;47.184;8.538;2022-12-18T18:37:11;24.85;;;9.50;;
7515;SDS011;3799;47.184;8.538;2022-12-18T18:39:38;23.40;;;8.57;;
7515;SDS011;3799;47.184;8.538;2022-12-18T18:42:05;30.00;;;10.68;;
7515;SDS011;3799;47.184;8.538;2022-12-18T18:44:32;25.25;;;9.32;;
7515;SDS011;3799;47.184;8.538;2022-12-18T18:47:01;23.13;;;8.38;;
7515;SDS011;3799;47.184;8.538;2022-12-18T18:49:30;25.05;;;9.05;;
7515;SDS011;3799;47.184;8.538;2022-12-18T18:51:57;21.85;;;8.35;;
7515;SDS011;3799;47.184;8.538;2022-12-18T18:54:25;14.52;;;6.82;;
7515;SDS011;3799;47.184;8.538;2022-12-18T18:56:52;20.10;;;7.53;;
7515;SDS011;3799;47.184;8.538;2022-12-18T18:59:39;17.98;;;8.25;;
7515;SDS011;3799;47.184;8.538;2022-12-18T19:02:10;21.27;;;8.40;;
7515;SDS011;3799;47.184;8.538;2022-12-18T19:04:39;24.13;;;9.20;;
7515;SDS011;3799;47.184;8.538;2022-12-18T19:07:12;22.30;;;10.60;;
7515;SDS011;3799;47.184;8.538;2022-12-18T19:09:55;21.40;;;8.15;;
7515;SDS011;3799;47.184;8.538;2022-12-18T19:12:26;27.42;;;10.30;;
7515;SDS011;3799;47.184;8.538;2022-12-18T19:15:20;16.92;;;7.40;;
7515;SDS011;3799;47.184;8.538;2022-12-18T19:17:47;19.58;;;9.35;;
7515;SDS011;3799;47.184;8.538;2022-12-18T19:20:14;23.17;;;9.00;;
7515;SDS011;3799;47.184;8.538;2022-12-18T19:22:41;23.05;;;8.85;;
7515;SDS011;3799;47.184;8.538;2022-12-18T19:25:10;22.38;;;9.95;;
7515;SDS011;3799;47.184;8.538;2022-12-18T19:27:37;29.70;;;10.18;;
7515;SDS011;3799;47.184;8.538;2022-12-18T19:30:05;22.92;;;9.10;;
7515;SDS011;3799;47.184;8.538;2022-12-18T19:32:32;25.17;;;11.13;;
7515;SDS011;3799;47.184;8.538;2022-12-18T19:35:00;24.92;;;10.65;;
7515;SDS011;3799;47.184;8.538;2022-12-18T19:37:27;22.42;;;9.43;;
7515;SDS011;3799;47.184;8.538;2022-12-18T19:39:54;21.10;;;9.95;;
7515;SDS011;3799;47.184;8.538;2022-12-18T19:42:21;29.42;;;11.30;;
7515;SDS011;3799;47.184;8.538;2022-12-18T19:44:58;24.42;;;9.05;;
7515;SDS011;3799;47.184;8.538;2022-12-18T19:47:25;24.05;;;10.95;;
7515;SDS011;3799;47.184;8.538;2022-12-18T19:49:52;29.30;;;10.65;;
7515;SDS011;3799;47.184;8.538;2022-12-18T19:52:19;28.73;;;10.18;;
7515;SDS011;3799;47.184;8.538;2022-12-18T19:54:46;31.23;;;10.13;;
7515;SDS011;3799;47.184;8.538;2022-12-18T19:57:13;29.60;;;11.88;;
7515;SDS011;3799;47.184;8.538;2022-12-18T19:59:39;28.38;;;10.82;;
7515;SDS011;3799;47.184;8.538;2022-12-18T20:02:13;24.13;;;10.52;;
7515;SDS011;3799;47.184;8.538;2022-12-18T20:04:40;34.72;;;11.35;;
7515;SDS011;3799;47.184;8.538;2022-12-18T20:07:09;30.20;;;11.68;;
7515;SDS011;3799;47.184;8.538;2022-12-18T20:09:36;30.50;;;11.00;;
7515;SDS011;3799;47.184;8.538;2022-12-18T20:12:03;32.50;;;10.60;;
7515;SDS011;3799;47.184;8.538;2022-12-18T20:14:31;30.10;;;11.20;;
7515;SDS011;3799;47.184;8.538;2022-12-18T20:16:58;27.70;;;10.43;;
7515;SDS011;3799;47.184;8.538;2022-12-18T20:19:26;30.98;;;11.93;;
7515;SDS011;3799;47.184;8.538;2022-12-18T20:21:53;31.98;;;11.93;;
7515;SDS011;3799;47.184;8.538;2022-12-18T20:24:20;31.13;;;11.52;;
7515;SDS011;3799;47.184;8.538;2022-12-18T20:26:46;30.77;;;11.68;;
7515;SDS011;3799;47.184;8.538;2022-12-18T20:29:14;24.58;;;10.32;;
7515;SDS011;3799;47.184;8.538;2022-12-18T20:31:41;33.58;;;11.50;;
7515;SDS011;3799;47.184;8.538;2022-12-18T20:34:08;33.10;;;12.68;;
7515;SDS011;3799;47.184;8.538;2022-12-18T20:36:35;35.15;;;12.30;;
7515;SDS011;3799;47.184;8.538;2022-12-18T20:39:04;26.88;;;10.05;;
7515;SDS011;3799;47.184;8.538;2022-12-18T20:41:34;24.05;;;10.73;;
7515;SDS011;3799;47.184;8.538;2022-12-18T20:44:04;26.25;;;10.05;;
7515;SDS011;3799;47.184;8.538;2022-12-18T20:46:49;31.00;;;11.90;;
7515;SDS011;3799;47.184;8.538;2022-12-18T20:49:18;29.50;;;11.32;;
7515;SDS011;3799;47.184;8.538;2022-12-18T20:51:47;37.67;;;14.10;;
7515;SDS011;3799;47.184;8.538;2022-12-18T20:54:15;31.42;;;11.23;;
7515;SDS011;3799;47.184;8.538;2022-12-18T20:56:45;28.40;;;10.55;;
7515;SDS011;3799;47.184;8.538;2022-12-18T20:59:12;26.77;;;11.10;;
7515;SDS011;3799;47.184;8.538;2022-12-18T21:01:42;31.00;;;11.98;;
7515;SDS011;3799;47.184;8.538;2022-12-18T21:04:14;32.60;;;12.50;;
7515;SDS011;3799;47.184;8.538;2022-12-18T21:06:44;33.22;;;13.35;;
7515;SDS011;3799;47.184;8.538;2022-12-18T21:09:18;31.33;;;11.02;;
7515;SDS011;3799;47.184;8.538;2022-12-18T21:11:45;33.60;;;12.95;;
7515;SDS011;3799;47.184;8.538;2022-12-18T21:14:31;36.88;;;11.93;;
7515;SDS011;3799;47.184;8.538;2022-12-18T21:16:58;29.45;;;11.75;;
7515;SDS011;3799;47.184;8.538;2022-12-18T21:19:27;37.25;;;12.65;;
7515;SDS011;3799;47.184;8.538;2022-12-18T21:21:55;31.00;;;12.80;;
7515;SDS011;3799;47.184;8.538;2022-12-18T21:24:23;32.90;;;11.63;;
7515;SDS011;3799;47.184;8.538;2022-12-18T21:26:52;34.58;;;12.82;;
7515;SDS011;3799;47.184;8.538;2022-12-18T21:29:22;30.33;;;11.50;;
7515;SDS011;3799;47.184;8.538;2022-12-18T21:31:52;31.02;;;10.63;;
7515;SDS011;3799;47.184;8.538;2022-12-18T21:34:24;31.00;;;11.07;;
7515;SDS011;3799;47.184;8.538;2022-12-18T21:36:53;27.23;;;10.45;;
7515;SDS011;3799;47.184;8.538;2022-12-18T21:39:22;27.45;;;11.07;;
7515;SDS011;3799;47.184;8.538;2022-12-18T21:41:50;33.28;;;13.18;;
7515;SDS011;3799;47.184;8.538;2022-12-18T21:44:35;35.42;;;12.48;;
7515;SDS011;3799;47.184;8.538;2022-12-18T21:47:08;33.72;;;11.75;;
7515;SDS011;3799;47.184;8.538;2022-12-18T21:49:51;26.05;;;11.45;;
7515;SDS011;3799;47.184;8.538;2022-12-18T21:54:57;28.15;;;10.02;;
7515;SDS011;3799;47.184;8.538;2022-12-18T21:57:34;35.05;;;11.88;;
7515;SDS011;3799;47.184;8.538;2022-12-18T22:00:02;30.55;;;12.40;;
7515;SDS011;3799;47.184;8.538;2022-12-18T22:02:30;34.50;;;12.57;;
7515;SDS011;3799;47.184;8.538;2022-12-18T22:04:57;34.05;;;11.80;;
7515;SDS011;3799;47.184;8.538;2022-12-18T22:07:25;31.98;;;11.90;;
7515;SDS011;3799;47.184;8.538;2022-12-18T22:09:54;31.63;;;11.60;;
7515;SDS011;3799;47.184;8.538;2022-12-18T22:12:22;35.00;;;12.13;;
7515;SDS011;3799;47.184;8.538;2022-12-18T22:15:10;32.80;;;11.43;;
7515;SDS011;3799;47.184;8.538;2022-12-18T22:17:46;32.58;;;11.32;;
7515;SDS011;3799;47.184;8.538;2022-12-18T22:20:14;31.52;;;11.75;;
7515;SDS011;3799;47.184;8.538;2022-12-18T22:22:42;31.92;;;11.63;;
7515;SDS011;3799;47.184;8.538;2022-12-18T22:25:09;30.80;;;11.60;;
7515;SDS011;3799;47.184;8.538;2022-12-18T22:27:36;26.90;;;10.75;;
7515;SDS011;3799;47.184;8.538;2022-12-18T22:30:03;30.23;;;12.13;;
7515;SDS011;3799;47.184;8.538;2022-12-18T22:32:34;29.17;;;11.32;;
7515;SDS011;3799;47.184;8.538;2022-12-18T22:35:02;32.70;;;12.02;;
7515;SDS011;3799;47.184;8.538;2022-12-18T22:37:38;34.22;;;13.02;;
7515;SDS011;3799;47.184;8.538;2022-12-18T22:40:04;35.38;;;12.50;;
7515;SDS011;3799;47.184;8.538;2022-12-18T22:42:33;31.77;;;11.10;;
7515;SDS011;3799;47.184;8.538;2022-12-18T22:45:00;29.63;;;11.05;;
7515;SDS011;3799;47.184;8.538;2022-12-18T22:47:27;37.47;;;13.48;;
7515;SDS011;3799;47.184;8.538;2022-12-18T22:49:56;28.90;;;11.80;;
7515;SDS011;3799;47.184;8.538;2022-12-18T22:52:23;35.35;;;13.40;;
7515;SDS011;3799;47.184;8.538;2022-12-18T22:54:51;33.45;;;12.73;;
7515;SDS011;3799;47.184;8.538;2022-12-18T22:57:22;34.22;;;13.45;;
7515;SDS011;3799;47.184;8.538;2022-12-18T22:59:50;38.17;;;14.02;;
7515;SDS011;3799;47.184;8.538;2022-12-18T23:02:17;35.58;;;13.82;;
7515;SDS011;3799;47.184;8.538;2022-12-18T23:04:45;42.03;;;12.85;;
7515;SDS011;3799;47.184;8.538;2022-12-18T23:07:13;35.85;;;12.27;;
7515;SDS011;3799;47.184;8.538;2022-12-18T23:09:41;37.17;;;14.35;;
7515;SDS011;3799;47.184;8.538;2022-12-18T23:12:15;37.10;;;13.98;;
7515;SDS011;3799;47.184;8.538;2022-12-18T23:14:46;38.75;;;13.07;;
7515;SDS011;3799;47.184;8.538;2022-12-18T23:17:12;31.90;;;13.65;;
7515;SDS011;3799;47.184;8.538;2022-12-18T23:19:42;37.20;;;14.23;;
7515;SDS011;3799;47.184;8.538;2022-12-18T23:22:14;34.55;;;13.10;;
7515;SDS011;3799;47.184;8.538;2022-12-18T23:24:42;32.28;;;12.45;;
7515;SDS011;3799;47.184;8.538;2022-12-18T23:27:08;36.60;;;13.30;;
7515;SDS011;3799;47.184;8.538;2022-12-18T23:29:37;39.13;;;14.30;;
7515;SDS011;3799;47.184;8.538;2022-12-18T23:32:05;35.47;;;13.35;;
7515;SDS011;3799;47.184;8.538;2022-12-18T23:34:33;38.17;;;13.32;;
7515;SDS011;3799;47.184;8.538;2022-12-18T23:36:59;37.15;;;13.30;;
7515;SDS011;3799;47.184;8.538;2022-12-18T23:39:28;35.00;;;13.88;;
7515;SDS011;3799;47.184;8.538;2022-12-18T23:41:56;36.08;;;12.57;;
7515;SDS011;3799;47.184;8.538;2022-12-18T23:44:24;35.90;;;13.77;;
7515;SDS011;3799;47.184;8.538;2022-12-18T23:46:51;39.33;;;13.15;;
7515;SDS011;3799;47.184;8.538;2022-12-18T23:49:18;38.70;;;12.82;;
7515;SDS011;3799;47.184;8.538;2022-12-18T23:51:45;37.13;;;12.98;;
7515;SDS011;3799;47.184;8.538;2022-12-18T23:54:12;30.52;;;11.45;;
7515;SDS011;3799;47.184;8.538;2022-12-18T23:56:39;32.38;;;12.77;;
7515;SDS011;3799;47.184;8.538;2022-12-18T23:59:06;31.48;;;11.98;;
